Time;durP1;ratioP1;P1;durP2;ratioP2;P2;SDS_P1;SDS_P2;PMS_P1;PMS_P2;Temp;Humidity;BMP_temperature;BMP_pressure;BME280_temperature;BME280_humidity;BME280_pressure;Samples;Min_cycle;Max_cycle;Signal;HPM_P1;HPM_P2
2022/03/15 00:01:31;;;;;;;38.67;21.70;;;6.60;99.90;;;;;;5051043;28;20720;-78
2022/03/15 00:03:58;;;;;;;41.80;20.50;;;6.50;99.90;;;;;;5048323;28;20319;-79
2022/03/15 00:06:26;;;;;;;43.87;21.97;;;6.40;99.90;;;;;;5048403;28;20232;-78
2022/03/15 00:08:53;;;;;;;39.03;21.83;;;6.40;99.90;;;;;;5048283;28;20246;-78
2022/03/15 00:11:20;;;;;;;39.10;22.07;;;6.30;99.90;;;;;;5048077;28;20620;-78
2022/03/15 00:13:47;;;;;;;39.77;22.20;;;6.20;99.90;;;;;;5048345;28;20227;-80
2022/03/15 00:16:14;;;;;;;42.93;23.23;;;6.20;99.90;;;;;;5048057;28;20270;-79
2022/03/15 00:18:41;;;;;;;41.50;22.63;;;6.10;99.90;;;;;;5046618;28;20244;-78
2022/03/15 00:21:10;;;;;;;41.70;22.67;;;6.10;99.90;;;;;;5047761;28;20228;-79
2022/03/15 00:23:38;;;;;;;43.80;22.80;;;6.00;99.90;;;;;;5048437;28;20231;-78
2022/03/15 00:26:04;;;;;;;40.70;22.90;;;6.00;99.90;;;;;;5048461;28;20228;-78
2022/03/15 00:28:32;;;;;;;37.70;21.47;;;5.90;99.90;;;;;;5047685;28;20580;-79
2022/03/15 00:30:58;;;;;;;47.10;22.87;;;5.90;99.90;;;;;;5046740;28;20259;-78
2022/03/15 00:33:27;;;;;;;40.33;21.40;;;5.90;99.90;;;;;;5047428;28;20221;-78
2022/03/15 00:35:54;;;;;;;38.17;22.20;;;5.80;99.90;;;;;;5047795;28;20244;-78
2022/03/15 00:38:21;;;;;;;41.13;22.07;;;5.80;99.90;;;;;;5045808;28;20228;-78
2022/03/15 00:40:49;;;;;;;36.83;21.30;;;5.70;99.90;;;;;;5047713;28;20234;-78
2022/03/15 00:43:17;;;;;;;36.60;20.90;;;5.70;99.90;;;;;;5045620;28;20220;-78
2022/03/15 00:45:44;;;;;;;35.13;21.17;;;5.70;99.90;;;;;;5046229;28;20702;-78
2022/03/15 00:48:13;;;;;;;36.27;20.17;;;5.70;99.90;;;;;;5045953;28;20322;-78
2022/03/15 00:50:41;;;;;;;33.90;20.13;;;5.60;99.90;;;;;;5047330;28;20232;-78
2022/03/15 00:53:09;;;;;;;35.20;19.17;;;5.60;99.90;;;;;;5045707;28;20235;-78
2022/03/15 00:55:36;;;;;;;35.57;20.37;;;5.60;99.90;;;;;;5047283;28;20220;-78
2022/03/15 00:58:05;;;;;;;40.30;20.30;;;5.60;99.90;;;;;;5045797;28;20294;-78
2022/03/15 01:00:33;;;;;;;27.87;18.37;;;5.60;99.90;;;;;;5045731;28;20235;-79
2022/03/15 01:03:02;;;;;;;35.07;19.30;;;5.60;99.90;;;;;;5047280;28;20289;-78
2022/03/15 01:05:29;;;;;;;30.57;18.60;;;5.50;99.90;;;;;;5063622;28;20334;-79
2022/03/15 01:07:56;;;;;;;42.07;20.13;;;5.60;99.90;;;;;;5067216;28;20672;-78
2022/03/15 01:10:22;;;;;;;34.00;19.50;;;5.60;99.90;;;;;;5066630;28;20227;-79
2022/03/15 01:12:49;;;;;;;32.53;19.07;;;5.60;99.90;;;;;;5069316;28;20732;-80
2022/03/15 01:15:17;;;;;;;32.73;19.37;;;5.60;99.90;;;;;;5067601;28;20353;-80
2022/03/15 01:17:44;;;;;;;31.47;19.73;;;5.60;99.90;;;;;;5070176;28;20274;-80
2022/03/15 01:20:12;;;;;;;35.97;19.10;;;5.70;99.90;;;;;;5067249;28;20928;-80
2022/03/15 01:22:39;;;;;;;32.17;18.43;;;5.70;99.90;;;;;;5069598;28;20227;-80
2022/03/15 01:25:07;;;;;;;32.53;17.90;;;5.80;99.90;;;;;;5068664;28;20653;-79
2022/03/15 01:27:36;;;;;;;31.43;18.37;;;5.80;99.90;;;;;;5068250;28;20413;-80
2022/03/15 01:30:07;;;;;;;32.10;18.37;;;5.80;99.90;;;;;;5067512;28;20767;-80
2022/03/15 01:32:35;;;;;;;44.23;20.53;;;5.80;99.90;;;;;;5069115;28;20227;-80
2022/03/15 01:35:02;;;;;;;33.77;18.87;;;5.80;99.90;;;;;;5069802;28;20765;-79
2022/03/15 01:37:29;;;;;;;36.83;20.07;;;5.80;99.90;;;;;;5068823;28;21057;-79
2022/03/15 01:39:57;;;;;;;33.13;18.87;;;5.80;99.90;;;;;;5065931;28;20778;-78
2022/03/15 01:42:24;;;;;;;36.97;19.43;;;5.90;99.90;;;;;;5067466;28;20261;-79
2022/03/15 01:44:51;;;;;;;43.23;22.60;;;5.90;99.90;;;;;;5081196;28;20741;-79
2022/03/15 01:47:18;;;;;;;44.97;23.27;;;5.90;99.90;;;;;;5063862;28;20326;-79
2022/03/15 01:49:47;;;;;;;45.43;24.13;;;5.90;99.90;;;;;;5071002;28;20215;-79
2022/03/15 01:52:15;;;;;;;41.00;23.83;;;6.00;99.90;;;;;;5069085;28;20223;-78
2022/03/15 01:54:43;;;;;;;46.90;23.33;;;6.00;99.90;;;;;;5064517;28;20269;-77
2022/03/15 01:57:10;;;;;;;48.67;24.73;;;6.00;99.90;;;;;;5065519;28;20233;-78
2022/03/15 01:59:39;;;;;;;48.17;23.10;;;6.00;99.90;;;;;;5065520;28;20300;-79
2022/03/15 02:02:06;;;;;;;45.10;22.87;;;6.10;99.90;;;;;;5068386;28;20257;-79
2022/03/15 02:04:34;;;;;;;46.63;22.40;;;6.10;99.90;;;;;;5046508;28;20239;-78
2022/03/15 02:07:04;;;;;;;45.33;22.53;;;6.10;99.90;;;;;;5044915;28;20735;-78
2022/03/15 02:09:31;;;;;;;43.43;21.90;;;6.00;99.90;;;;;;5024607;28;20230;-78
2022/03/15 02:11:58;;;;;;;35.77;20.30;;;6.10;99.90;;;;;;5026561;28;20228;-78
2022/03/15 02:14:25;;;;;;;37.80;21.03;;;6.10;99.90;;;;;;5041322;28;20247;-78
2022/03/15 02:16:52;;;;;;;30.97;19.17;;;6.10;99.90;;;;;;5047894;28;20228;-78
2022/03/15 02:19:19;;;;;;;35.00;18.73;;;6.00;99.90;;;;;;5049911;28;20232;-79
2022/03/15 02:21:47;;;;;;;36.20;18.97;;;6.00;99.90;;;;;;5030890;28;20235;-78
2022/03/15 02:24:14;;;;;;;36.03;19.87;;;6.00;99.90;;;;;;5029437;28;20314;-78
2022/03/15 02:26:41;;;;;;;34.33;19.50;;;6.00;99.90;;;;;;5030890;28;20262;-78
2022/03/15 02:29:08;;;;;;;38.70;19.93;;;6.00;99.90;;;;;;5029307;28;20221;-77
2022/03/15 02:31:36;;;;;;;33.07;18.77;;;6.00;99.90;;;;;;5030812;28;20807;-77
2022/03/15 02:34:03;;;;;;;34.33;19.77;;;6.00;99.90;;;;;;5030023;28;20232;-77
2022/03/15 02:36:29;;;;;;;34.00;18.93;;;6.00;99.90;;;;;;5030003;28;20225;-78
2022/03/15 02:38:57;;;;;;;36.07;20.40;;;6.00;99.90;;;;;;5030065;28;20246;-78
2022/03/15 02:41:24;;;;;;;34.33;20.33;;;6.00;99.90;;;;;;5029969;28;20971;-78
2022/03/15 02:43:51;;;;;;;35.23;19.00;;;6.00;99.90;;;;;;5030237;28;20222;-78
2022/03/15 02:46:18;;;;;;;36.03;19.40;;;6.00;99.90;;;;;;5044781;28;20698;-78
2022/03/15 02:48:44;;;;;;;37.00;19.10;;;6.00;99.90;;;;;;5030028;28;20607;-79
2022/03/15 02:51:12;;;;;;;34.37;19.27;;;6.00;99.90;;;;;;5044639;28;20231;-78
2022/03/15 02:53:41;;;;;;;35.60;20.47;;;6.00;99.90;;;;;;5030344;28;20758;-78
2022/03/15 02:56:11;;;;;;;38.77;20.80;;;6.00;99.90;;;;;;5029163;28;20232;-78
2022/03/15 02:58:38;;;;;;;41.90;20.87;;;6.00;99.90;;;;;;5045071;28;20221;-78
2022/03/15 03:01:05;;;;;;;37.50;20.77;;;6.00;99.90;;;;;;5050316;28;20223;-78
2022/03/15 03:03:31;;;;;;;48.40;23.33;;;6.10;99.90;;;;;;5069560;28;20249;-79
2022/03/15 03:05:58;;;;;;;45.23;23.47;;;6.00;99.90;;;;;;5068130;28;20745;-78
2022/03/15 03:08:26;;;;;;;44.03;23.80;;;6.00;99.90;;;;;;5049779;28;20242;-78
2022/03/15 03:10:53;;;;;;;48.43;24.87;;;6.00;99.90;;;;;;5051084;28;20232;-80
2022/03/15 03:13:26;;;;;;;39.53;23.07;;;6.00;99.90;;;;;;5053682;28;20232;-79
2022/03/15 03:15:55;;;;;;;44.40;22.33;;;6.00;99.90;;;;;;5053082;28;20240;-79
2022/03/15 03:18:22;;;;;;;41.70;21.97;;;6.00;99.90;;;;;;5049486;28;20232;-77
2022/03/15 03:20:49;;;;;;;38.63;22.40;;;5.90;99.90;;;;;;5048900;28;20309;-77
2022/03/15 03:23:16;;;;;;;42.33;23.37;;;5.90;99.90;;;;;;5031867;28;20244;-79
2022/03/15 03:25:43;;;;;;;54.40;27.27;;;5.90;99.90;;;;;;5032958;28;20315;-80
2022/03/15 03:28:09;;;;;;;67.13;33.53;;;5.90;99.90;;;;;;5043876;28;20235;-80
2022/03/15 03:30:38;;;;;;;66.10;31.70;;;5.90;99.90;;;;;;5052527;28;20230;-80
2022/03/15 03:33:04;;;;;;;67.87;33.83;;;5.80;99.90;;;;;;5052231;28;20278;-80
2022/03/15 03:35:31;;;;;;;72.27;33.30;;;5.80;99.90;;;;;;5050354;28;20316;-79
2022/03/15 03:37:58;;;;;;;69.50;34.23;;;5.80;99.90;;;;;;5052086;28;20270;-81
2022/03/15 03:40:26;;;;;;;65.60;32.10;;;5.80;99.90;;;;;;5049676;28;20325;-79
2022/03/15 03:42:52;;;;;;;69.13;35.20;;;5.80;99.90;;;;;;5057314;28;20231;-79
2022/03/15 03:45:19;;;;;;;73.00;34.77;;;5.80;99.90;;;;;;5050000;28;20314;-78
2022/03/15 03:47:47;;;;;;;78.30;35.37;;;5.70;99.90;;;;;;5049836;28;20262;-79
2022/03/15 03:50:14;;;;;;;76.23;35.57;;;5.70;99.90;;;;;;5049251;28;20226;-78
2022/03/15 03:52:40;;;;;;;75.47;34.03;;;5.70;99.90;;;;;;5069119;28;20238;-78
2022/03/15 03:55:08;;;;;;;75.87;34.60;;;5.70;99.90;;;;;;5068375;28;20317;-79
2022/03/15 03:57:37;;;;;;;78.03;34.20;;;5.70;99.90;;;;;;5069272;28;20745;-78
2022/03/15 04:00:05;;;;;;;75.63;33.73;;;5.60;99.90;;;;;;5066905;28;20242;-78
2022/03/15 04:02:39;;;;;;;77.03;34.50;;;5.60;99.90;;;;;;5068781;28;20234;-78
2022/03/15 04:05:08;;;;;;;73.67;33.80;;;5.60;99.90;;;;;;5068818;28;20318;-79
2022/03/15 04:07:37;;;;;;;73.30;33.57;;;5.60;99.90;;;;;;5069792;28;20242;-79
2022/03/15 04:10:06;;;;;;;81.60;35.73;;;5.50;99.90;;;;;;5067880;28;20260;-79
2022/03/15 04:12:34;;;;;;;86.93;35.77;;;5.50;99.90;;;;;;5064965;28;20238;-77
2022/03/15 04:15:01;;;;;;;89.03;36.83;;;5.50;99.90;;;;;;5047835;28;20319;-78
2022/03/15 04:17:28;;;;;;;92.10;39.27;;;5.50;99.90;;;;;;5051409;28;20227;-78
2022/03/15 04:19:54;;;;;;;91.50;36.37;;;5.50;99.90;;;;;;5060934;28;20235;-79
2022/03/15 04:22:22;;;;;;;85.60;37.20;;;5.50;99.90;;;;;;5047436;28;20236;-79
2022/03/15 04:24:49;;;;;;;94.33;38.40;;;5.50;99.90;;;;;;5055842;28;20228;-78
2022/03/15 04:27:16;;;;;;;77.43;35.77;;;5.50;99.90;;;;;;5061176;28;20298;-79
2022/03/15 04:29:43;;;;;;;77.13;35.00;;;5.50;99.90;;;;;;5056780;28;20292;-80
2022/03/15 04:32:10;;;;;;;96.37;38.87;;;5.50;99.90;;;;;;5051601;28;20650;-80
2022/03/15 04:34:37;;;;;;;91.43;39.83;;;5.50;99.90;;;;;;5050992;28;20220;-79
2022/03/15 04:37:05;;;;;;;112.23;41.07;;;5.40;99.90;;;;;;5067181;28;20939;-78
2022/03/15 04:39:33;;;;;;;134.13;40.10;;;5.40;99.90;;;;;;5067198;28;20235;-79
2022/03/15 04:42:01;;;;;;;124.40;39.97;;;5.40;99.90;;;;;;5071082;28;20238;-79
2022/03/15 04:44:28;;;;;;;140.30;41.50;;;5.40;99.90;;;;;;5070254;28;20227;-80
2022/03/15 04:46:55;;;;;;;139.83;42.00;;;5.40;99.90;;;;;;5064071;28;20319;-79
2022/03/15 04:49:21;;;;;;;110.00;39.43;;;5.40;99.90;;;;;;5050178;28;20232;-79
2022/03/15 04:51:48;;;;;;;133.60;41.23;;;5.30;99.90;;;;;;5048947;28;20224;-79
2022/03/15 04:54:15;;;;;;;141.73;40.70;;;5.30;99.90;;;;;;5048327;28;20586;-79
2022/03/15 04:56:43;;;;;;;113.87;40.43;;;5.30;99.90;;;;;;5051844;28;20262;-79
2022/03/15 04:59:10;;;;;;;141.77;40.60;;;5.30;99.90;;;;;;5047853;28;20220;-79
2022/03/15 05:01:37;;;;;;;144.63;41.13;;;5.20;99.90;;;;;;5070192;28;20241;-79
2022/03/15 05:04:04;;;;;;;112.70;39.67;;;5.20;99.90;;;;;;5067337;28;20722;-78
2022/03/15 05:06:30;;;;;;;134.73;42.07;;;5.20;99.90;;;;;;5047246;28;20228;-79
2022/03/15 05:08:57;;;;;;;192.00;44.43;;;5.20;99.90;;;;;;5047192;28;20239;-78
2022/03/15 05:11:23;;;;;;;171.53;42.70;;;5.20;99.90;;;;;;5045284;28;20232;-79
2022/03/15 05:13:51;;;;;;;131.83;40.27;;;5.20;99.90;;;;;;5048761;28;20224;-79
2022/03/15 05:16:21;;;;;;;141.50;41.83;;;5.20;99.90;;;;;;5050143;28;20228;-80
2022/03/15 05:18:50;;;;;;;176.17;40.63;;;5.20;99.90;;;;;;5060830;28;20239;-79
2022/03/15 05:21:17;;;;;;;150.07;42.03;;;5.20;99.90;;;;;;5032986;28;20298;-80
2022/03/15 05:23:44;;;;;;;148.20;39.73;;;5.20;99.90;;;;;;5058080;28;20242;-79
2022/03/15 05:26:11;;;;;;;102.10;39.87;;;5.20;99.90;;;;;;5048662;28;20228;-78
2022/03/15 05:28:39;;;;;;;160.13;41.50;;;5.20;99.90;;;;;;5067512;28;20227;-79
2022/03/15 05:31:07;;;;;;;177.13;40.63;;;5.20;99.90;;;;;;5069011;28;20233;-79
2022/03/15 05:33:35;;;;;;;124.20;37.47;;;5.10;99.90;;;;;;5070847;28;20728;-79
2022/03/15 05:36:02;;;;;;;157.87;39.50;;;5.10;99.90;;;;;;5067670;28;20231;-79
2022/03/15 05:38:29;;;;;;;162.37;39.60;;;5.20;99.90;;;;;;5066952;28;20224;-80
2022/03/15 05:40:56;;;;;;;173.73;38.53;;;5.10;99.90;;;;;;5053610;28;20224;-78
2022/03/15 05:43:23;;;;;;;197.43;37.40;;;5.20;99.90;;;;;;5049088;28;20228;-84
2022/03/15 05:45:50;;;;;;;171.33;38.20;;;5.20;99.90;;;;;;5055058;28;20278;-85
2022/03/15 05:48:19;;;;;;;139.40;37.90;;;5.20;99.90;;;;;;5050384;28;20219;-85
2022/03/15 05:50:46;;;;;;;225.53;45.47;;;5.20;99.90;;;;;;5050960;28;20236;-84
2022/03/15 05:53:13;;;;;;;418.70;51.47;;;5.20;99.90;;;;;;5042577;28;20797;-86
2022/03/15 05:55:40;;;;;;;149.53;40.90;;;5.30;99.90;;;;;;5054053;28;20315;-84
2022/03/15 05:58:07;;;;;;;143.03;40.37;;;5.30;99.90;;;;;;5055508;28;20308;-82
2022/03/15 06:00:34;;;;;;;145.03;39.40;;;5.30;99.90;;;;;;5056389;28;20662;-84
2022/03/15 06:03:01;;;;;;;207.73;38.80;;;5.30;99.90;;;;;;5050636;28;20228;-83
2022/03/15 06:05:31;;;;;;;322.30;41.53;;;5.40;99.90;;;;;;5042321;28;20319;-85
2022/03/15 06:07:58;;;;;;;397.93;44.17;;;5.30;99.90;;;;;;5040714;28;20224;-84
2022/03/15 06:10:28;;;;;;;119.73;30.23;;;5.30;99.90;;;;;;5051146;28;20279;-85
2022/03/15 06:12:55;;;;;;;137.10;33.03;;;5.30;99.90;;;;;;5049600;28;20224;-87
2022/03/15 06:15:22;;;;;;;185.97;33.13;;;5.30;99.90;;;;;;5042077;28;20227;-86
2022/03/15 06:17:51;;;;;;;175.30;32.77;;;5.20;99.90;;;;;;5046566;28;20250;-86
2022/03/15 06:20:19;;;;;;;172.13;33.80;;;5.20;99.90;;;;;;5058809;28;20824;-86
2022/03/15 06:22:48;;;;;;;169.17;31.90;;;5.20;99.90;;;;;;5049400;28;20240;-86
2022/03/15 06:25:19;;;;;;;128.83;27.67;;;5.10;99.90;;;;;;5054113;28;20220;-86
2022/03/15 06:27:46;;;;;;;154.73;29.53;;;5.00;99.90;;;;;;5063599;28;20741;-86
2022/03/15 06:30:16;;;;;;;146.60;28.40;;;5.00;99.90;;;;;;5069061;28;20231;-84
2022/03/15 06:32:43;;;;;;;183.07;31.47;;;4.90;99.90;;;;;;5064295;28;20227;-87
2022/03/15 06:35:12;;;;;;;141.83;27.57;;;4.80;99.90;;;;;;5066214;28;20693;-86
2022/03/15 06:37:40;;;;;;;138.83;29.37;;;4.70;99.90;;;;;;5065789;28;20231;-86
2022/03/15 06:40:10;;;;;;;184.93;29.97;;;4.70;99.90;;;;;;5087772;28;20236;-86
2022/03/15 06:42:38;;;;;;;130.83;27.97;;;4.60;99.90;;;;;;5063850;28;20320;-84
2022/03/15 06:45:06;;;;;;;131.03;27.40;;;4.60;99.90;;;;;;5060790;28;20601;-85
2022/03/15 06:47:33;;;;;;;98.20;24.70;;;4.60;99.90;;;;;;5068326;28;20640;-87
2022/03/15 06:50:00;;;;;;;112.33;20.80;;;4.60;99.90;;;;;;5066697;28;20306;-88
2022/03/15 06:52:26;;;;;;;125.70;21.17;;;4.50;99.90;;;;;;5064540;28;20234;-87
2022/03/15 06:54:53;;;;;;;75.07;18.33;;;4.50;99.90;;;;;;5066250;28;20223;-87
2022/03/15 06:57:23;;;;;;;375.63;32.17;;;4.50;99.90;;;;;;5062023;28;20293;-87
2022/03/15 06:59:50;;;;;;;103.13;18.50;;;4.50;99.90;;;;;;5063590;28;20820;-86
2022/03/15 07:02:16;;;;;;;54.47;18.50;;;4.40;99.90;;;;;;5066148;28;20238;-87
2022/03/15 07:04:43;;;;;;;50.50;18.07;;;4.50;99.90;;;;;;5067969;28;20294;-86
2022/03/15 07:07:10;;;;;;;63.77;19.63;;;4.50;99.90;;;;;;5066263;28;20313;-86
2022/03/15 07:09:37;;;;;;;127.20;25.87;;;4.50;99.90;;;;;;5075756;28;20253;-87
2022/03/15 07:12:05;;;;;;;97.83;25.33;;;4.50;99.90;;;;;;5067483;28;20341;-89
2022/03/15 07:14:33;;;;;;;78.03;21.37;;;4.60;99.90;;;;;;5075034;28;20249;-88
2022/03/15 07:17:00;;;;;;;78.47;21.20;;;4.60;99.90;;;;;;5063857;28;20310;-87
2022/03/15 07:19:27;;;;;;;91.40;21.93;;;4.70;99.90;;;;;;5065762;28;20231;-88
2022/03/15 07:21:54;;;;;;;79.60;19.37;;;4.70;99.90;;;;;;5066904;28;20234;-87
2022/03/15 07:24:20;;;;;;;55.60;19.27;;;4.80;99.90;;;;;;5067495;28;20234;-87
2022/03/15 07:26:47;;;;;;;86.20;21.87;;;4.80;99.90;;;;;;5067667;28;20849;-87
2022/03/15 07:29:14;;;;;;;74.27;27.17;;;4.90;99.90;;;;;;5063948;28;20301;-86
2022/03/15 07:31:42;;;;;;;82.07;22.90;;;4.90;99.90;;;;;;5069289;28;20244;-87
2022/03/15 07:34:09;;;;;;;105.50;22.00;;;4.90;99.90;;;;;;5068609;28;20233;-84
2022/03/15 07:36:36;;;;;;;113.93;24.33;;;5.00;99.90;;;;;;5067228;28;20238;-81
2022/03/15 07:39:04;;;;;;;73.40;19.80;;;5.00;99.90;;;;;;5065302;28;20718;-82
2022/03/15 07:41:32;;;;;;;62.53;21.80;;;5.00;99.90;;;;;;5068920;28;20223;-83
2022/03/15 07:43:59;;;;;;;48.10;22.47;;;5.00;99.90;;;;;;5056986;28;20231;-83
2022/03/15 07:46:26;;;;;;;64.40;18.80;;;5.00;99.90;;;;;;5068984;28;20565;-83
2022/03/15 07:48:54;;;;;;;35.77;21.97;;;5.00;99.90;;;;;;5071983;28;20231;-83
2022/03/15 07:51:21;;;;;;;29.20;16.47;;;5.00;99.90;;;;;;5063478;28;20219;-84
2022/03/15 07:53:48;;;;;;;49.23;17.20;;;5.00;99.90;;;;;;5067412;28;20243;-83
2022/03/15 07:56:14;;;;;;;26.50;17.07;;;5.00;99.90;;;;;;5063789;28;20231;-84
2022/03/15 07:58:41;;;;;;;25.90;16.03;;;5.10;99.90;;;;;;5067512;28;20227;-79
2022/03/15 08:01:08;;;;;;;30.07;16.00;;;5.10;99.90;;;;;;5068232;28;20220;-81
2022/03/15 08:03:34;;;;;;;28.10;15.93;;;5.10;99.90;;;;;;5065944;28;20227;-81
2022/03/15 08:06:02;;;;;;;23.90;15.97;;;5.20;99.90;;;;;;5067430;28;20223;-81
2022/03/15 08:08:29;;;;;;;22.87;15.77;;;5.30;99.90;;;;;;5067022;28;20227;-81
2022/03/15 08:10:56;;;;;;;49.07;17.03;;;5.40;99.90;;;;;;5097960;28;20314;-80
2022/03/15 08:13:22;;;;;;;20.37;14.73;;;5.40;99.90;;;;;;5068471;28;20286;-81
2022/03/15 08:15:49;;;;;;;22.17;15.20;;;5.50;99.90;;;;;;5067387;28;20263;-81
2022/03/15 08:18:16;;;;;;;26.03;16.77;;;5.60;99.90;;;;;;5068380;28;20239;-81
2022/03/15 08:20:42;;;;;;;23.37;16.07;;;5.70;99.90;;;;;;5066556;28;20222;-84
2022/03/15 08:23:12;;;;;;;31.80;16.23;;;5.80;99.90;;;;;;5068122;28;20220;-83
2022/03/15 08:25:39;;;;;;;38.07;16.13;;;5.80;99.90;;;;;;5067600;28;20231;-83
2022/03/15 08:28:06;;;;;;;21.47;15.07;;;5.80;99.90;;;;;;5066695;28;20244;-84
2022/03/15 08:30:32;;;;;;;22.57;16.33;;;5.90;99.90;;;;;;5062976;28;20230;-84
2022/03/15 08:32:59;;;;;;;23.47;15.23;;;6.00;99.90;;;;;;5066574;28;20202;-84
2022/03/15 08:35:26;;;;;;;48.97;16.77;;;6.10;99.90;;;;;;5065017;28;20231;-83
2022/03/15 08:37:53;;;;;;;20.73;14.37;;;6.20;99.90;;;;;;5067191;28;20227;-83
2022/03/15 08:40:23;;;;;;;24.13;16.23;;;6.30;99.90;;;;;;5060178;28;20357;-83
2022/03/15 08:42:55;;;;;;;22.60;14.97;;;6.40;99.90;;;;;;5068856;28;20235;-83
2022/03/15 08:45:22;;;;;;;23.33;14.97;;;6.50;99.90;;;;;;5063977;28;20239;-87
2022/03/15 08:47:49;;;;;;;18.23;14.07;;;6.60;99.90;;;;;;5064128;28;20594;-84
2022/03/15 08:50:16;;;;;;;21.17;14.33;;;6.70;99.90;;;;;;5060089;28;20277;-84
2022/03/15 08:52:44;;;;;;;21.93;14.27;;;6.80;99.90;;;;;;5066136;28;20744;-84
2022/03/15 08:55:11;;;;;;;20.53;13.77;;;6.90;99.90;;;;;;5064073;28;20227;-84
2022/03/15 08:57:39;;;;;;;22.47;14.50;;;7.00;99.90;;;;;;5067644;28;20241;-84
2022/03/15 09:00:07;;;;;;;21.07;14.53;;;7.10;99.90;;;;;;5060985;28;20238;-83
2022/03/15 09:02:35;;;;;;;24.57;15.77;;;7.20;99.90;;;;;;5066849;28;20230;-83
2022/03/15 09:05:02;;;;;;;21.53;14.37;;;7.30;99.90;;;;;;5064796;28;20224;-83
2022/03/15 09:07:30;;;;;;;21.73;15.77;;;7.40;99.90;;;;;;5071927;28;20231;-83
2022/03/15 09:09:57;;;;;;;21.57;14.83;;;7.50;99.90;;;;;;5067823;28;20223;-85
2022/03/15 09:12:24;;;;;;;23.37;14.50;;;7.60;99.90;;;;;;5067372;28;20330;-83
2022/03/15 09:14:52;;;;;;;20.87;14.90;;;7.70;99.90;;;;;;5064288;28;20223;-82
2022/03/15 09:17:18;;;;;;;21.50;14.30;;;7.90;99.90;;;;;;5063273;28;20873;-83
2022/03/15 09:19:45;;;;;;;24.83;15.37;;;8.00;99.90;;;;;;5064966;28;20245;-85
2022/03/15 09:22:14;;;;;;;21.63;14.87;;;8.20;99.90;;;;;;5062235;28;20235;-84
2022/03/15 09:24:41;;;;;;;22.30;14.27;;;8.30;99.90;;;;;;5066159;28;20227;-84
2022/03/15 09:27:08;;;;;;;19.37;12.70;;;8.50;99.90;;;;;;5061584;28;20270;-84
2022/03/15 09:29:36;;;;;;;16.43;12.20;;;8.50;99.90;;;;;;5064292;28;20228;-83
2022/03/15 09:32:05;;;;;;;20.67;13.40;;;8.60;99.90;;;;;;5067370;28;20677;-84
2022/03/15 09:34:33;;;;;;;19.00;12.40;;;8.70;99.90;;;;;;5062687;28;20234;-84
2022/03/15 09:37:00;;;;;;;16.60;11.93;;;8.70;99.90;;;;;;5064789;28;20340;-84
2022/03/15 09:39:27;;;;;;;15.93;12.27;;;8.70;99.90;;;;;;5062273;28;20306;-84
2022/03/15 09:41:55;;;;;;;17.73;13.00;;;8.70;99.90;;;;;;5063204;28;20840;-84
2022/03/15 09:44:27;;;;;;;18.40;12.27;;;8.80;99.90;;;;;;5062949;28;20879;-84
2022/03/15 09:46:56;;;;;;;19.00;13.87;;;8.80;99.90;;;;;;5059463;28;20234;-83
2022/03/15 09:49:26;;;;;;;17.90;12.03;;;8.90;99.90;;;;;;5064777;28;20592;-84
2022/03/15 09:51:55;;;;;;;19.23;12.37;;;9.00;99.90;;;;;;5062045;28;20223;-83
2022/03/15 09:54:22;;;;;;;20.50;12.37;;;9.10;99.90;;;;;;5063154;28;20227;-84
2022/03/15 09:56:49;;;;;;;22.33;13.20;;;9.20;99.90;;;;;;5059732;28;20365;-83
2022/03/15 09:59:19;;;;;;;18.20;12.63;;;9.30;99.90;;;;;;5062181;28;20226;-84
2022/03/15 10:01:50;;;;;;;18.47;12.33;;;9.40;99.90;;;;;;5066646;28;20226;-83
2022/03/15 10:04:17;;;;;;;20.50;12.23;;;9.40;99.90;;;;;;5063918;28;20226;-84
2022/03/15 10:06:45;;;;;;;20.13;12.23;;;9.50;99.90;;;;;;5064840;28;20238;-83
2022/03/15 10:09:13;;;;;;;14.83;11.10;;;9.50;99.90;;;;;;5064387;28;20577;-82
2022/03/15 10:11:40;;;;;;;16.63;10.27;;;9.60;99.90;;;;;;5063263;28;20313;-84
2022/03/15 10:14:07;;;;;;;16.23;10.37;;;9.60;99.90;;;;;;5064831;28;20251;-82
2022/03/15 10:16:35;;;;;;;19.07;10.43;;;9.70;99.90;;;;;;5069389;28;20250;-81
2022/03/15 10:19:03;;;;;;;17.37;10.73;;;9.70;99.90;;;;;;5064021;28;20224;-82
2022/03/15 10:21:44;;;;;;;16.00;10.77;;;9.80;99.90;;;;;;5067227;28;20771;-81
2022/03/15 10:24:18;;;;;;;16.10;11.07;;;9.80;99.90;;;;;;5061033;28;20718;-81
2022/03/15 10:26:46;;;;;;;16.83;10.30;;;9.90;99.90;;;;;;5068691;28;20230;-81
2022/03/15 10:29:14;;;;;;;16.83;10.03;;;10.00;99.90;;;;;;5065645;28;20233;-82
2022/03/15 10:31:42;;;;;;;15.23;9.83;;;10.20;99.90;;;;;;5066527;28;20233;-83
2022/03/15 10:34:10;;;;;;;19.27;9.50;;;10.30;99.90;;;;;;5062812;28;20244;-84
2022/03/15 10:36:39;;;;;;;17.40;9.10;;;10.40;99.90;;;;;;5062576;28;20592;-84
2022/03/15 10:39:07;;;;;;;14.00;9.30;;;10.60;99.90;;;;;;5065032;28;20227;-81
2022/03/15 10:41:45;;;;;;;17.67;9.73;;;10.70;99.80;;;;;;5072735;28;20235;-81
2022/03/15 10:44:20;;;;;;;15.67;9.33;;;10.80;98.80;;;;;;5069173;28;20316;-81
2022/03/15 10:46:59;;;;;;;18.03;9.87;;;10.90;98.90;;;;;;5074023;28;20234;-81
2022/03/15 10:49:26;;;;;;;15.13;10.33;;;11.00;98.90;;;;;;5071131;28;20244;-82
2022/03/15 10:51:53;;;;;;;17.10;10.17;;;11.00;99.30;;;;;;5074471;28;20225;-81
2022/03/15 10:54:24;;;;;;;16.67;9.20;;;11.00;99.00;;;;;;5069563;28;20291;-81
2022/03/15 10:56:56;;;;;;;15.03;9.03;;;11.00;98.20;;;;;;5071118;28;20322;-81
2022/03/15 10:59:23;;;;;;;16.97;10.33;;;11.10;98.00;;;;;;5066236;28;20322;-81
2022/03/15 11:01:51;;;;;;;16.63;10.03;;;11.10;98.40;;;;;;5068351;28;20233;-82
2022/03/15 11:04:19;;;;;;;15.57;9.47;;;11.10;98.60;;;;;;5069738;28;20290;-82
2022/03/15 11:06:47;;;;;;;16.17;8.57;;;11.20;98.10;;;;;;5073277;28;20233;-81
2022/03/15 11:09:20;;;;;;;12.03;7.13;;;11.30;98.00;;;;;;5071983;28;20249;-82
2022/03/15 11:11:52;;;;;;;13.27;6.77;;;11.40;97.70;;;;;;5074178;28;20221;-82
2022/03/15 11:14:39;;;;;;;20.40;9.60;;;11.40;97.50;;;;;;5071268;28;20878;-83
2022/03/15 11:17:12;;;;;;;15.13;8.37;;;11.50;97.40;;;;;;5066213;28;20226;-82
2022/03/15 11:19:43;;;;;;;16.47;9.40;;;11.60;97.60;;;;;;5076360;28;20797;-83
2022/03/15 11:22:11;;;;;;;12.93;8.73;;;11.80;97.90;;;;;;5073134;28;20319;-83
2022/03/15 11:24:42;;;;;;;14.70;8.33;;;11.90;97.70;;;;;;5072202;28;20227;-83
2022/03/15 11:27:13;;;;;;;14.23;8.83;;;12.10;97.40;;;;;;5069755;28;20253;-83
2022/03/15 11:29:44;;;;;;;14.20;7.63;;;12.20;97.10;;;;;;5068875;28;20679;-84
2022/03/15 11:32:12;;;;;;;13.83;7.07;;;12.30;95.40;;;;;;5072058;28;20222;-84
2022/03/15 11:34:41;;;;;;;12.17;7.83;;;12.30;95.50;;;;;;5071414;28;20235;-85
2022/03/15 11:37:09;;;;;;;17.60;8.37;;;12.30;95.80;;;;;;5067325;28;20255;-84
2022/03/15 11:39:38;;;;;;;12.93;8.43;;;12.40;95.80;;;;;;5067462;28;20229;-84
2022/03/15 11:42:09;;;;;;;14.30;8.93;;;12.40;95.60;;;;;;5062186;28;20313;-85
2022/03/15 11:44:47;;;;;;;14.37;9.20;;;12.40;95.60;;;;;;5064903;28;20230;-84
2022/03/15 11:47:22;;;;;;;18.13;9.27;;;12.40;95.70;;;;;;5065914;28;20223;-84
2022/03/15 11:49:58;;;;;;;14.47;8.40;;;12.50;95.40;;;;;;5065290;28;20229;-84
2022/03/15 11:52:34;;;;;;;15.73;9.03;;;12.50;95.40;;;;;;5060897;28;20244;-84
2022/03/15 11:55:08;;;;;;;15.73;8.77;;;12.60;95.50;;;;;;5057896;28;20314;-84
2022/03/15 11:57:42;;;;;;;16.63;8.37;;;12.70;95.40;;;;;;5061396;28;20264;-85
2022/03/15 12:00:11;;;;;;;13.67;8.40;;;12.70;95.10;;;;;;5061224;28;20233;-84
2022/03/15 12:02:41;;;;;;;16.23;8.47;;;12.80;95.00;;;;;;5070600;28;20233;-84
2022/03/15 12:05:17;;;;;;;14.03;7.47;;;12.90;95.10;;;;;;5062497;28;20223;-83
2022/03/15 12:07:46;;;;;;;12.57;8.20;;;12.90;94.80;;;;;;5067172;28;20226;-84
2022/03/15 12:10:24;;;;;;;13.20;7.93;;;13.10;95.00;;;;;;5067112;28;20241;-83
2022/03/15 12:13:02;;;;;;;12.43;8.13;;;13.10;94.70;;;;;;5065541;28;20247;-84
2022/03/15 12:15:37;;;;;;;13.10;8.07;;;13.30;94.60;;;;;;5068312;28;20242;-83
2022/03/15 12:18:06;;;;;;;14.43;8.00;;;13.40;94.70;;;;;;5067843;28;20242;-84
2022/03/15 12:20:46;;;;;;;11.27;7.57;;;13.50;94.90;;;;;;5067129;28;20242;-83
2022/03/15 12:23:23;;;;;;;14.03;7.63;;;13.60;94.30;;;;;;5081473;28;20227;-84
2022/03/15 12:25:54;;;;;;;14.33;8.50;;;13.80;94.00;;;;;;5063798;28;20311;-83
2022/03/15 12:28:32;;;;;;;13.10;7.80;;;13.90;93.60;;;;;;5064461;28;20240;-84
2022/03/15 12:31:09;;;;;;;13.33;8.20;;;14.00;93.30;;;;;;5078138;28;20234;-83
2022/03/15 12:33:36;;;;;;;14.07;7.00;;;14.10;93.20;;;;;;5061794;28;20735;-84
2022/03/15 12:36:05;;;;;;;13.70;6.77;;;14.10;92.80;;;;;;5065214;28;20219;-84
2022/03/15 12:38:34;;;;;;;15.20;8.20;;;14.10;92.80;;;;;;5063849;28;20242;-84
2022/03/15 12:41:02;;;;;;;13.77;7.67;;;14.10;92.30;;;;;;5059296;28;20238;-84